Time;durP1;ratioP1;P1;durP2;ratioP2;P2;SDS_P1;SDS_P2;PMS_P1;PMS_P2;Temp;Humidity;BMP_temperature;BMP_pressure;BME280_temperature;BME280_humidity;BME280_pressure;Samples;Min_cycle;Max_cycle;Signal;HPM_P1;HPM_P2
2021/05/01 00:02:18;;;;;;;7.38;6.53;;;14.80;71.90;;;14.31;57.76;94287.66;5051712;28;20254;-81
2021/05/01 00:04:45;;;;;;;7.85;7.07;;;14.70;71.70;;;14.32;58.93;94288.44;5013089;28;20207;-81
2021/05/01 00:07:12;;;;;;;10.18;8.85;;;14.80;72.10;;;14.30;59.81;94280.78;4980465;28;20610;-80
2021/05/01 00:09:39;;;;;;;11.82;9.52;;;14.80;72.70;;;14.26;59.85;94269.09;4968998;28;20670;-80
2021/05/01 00:12:06;;;;;;;14.32;12.30;;;14.80;72.80;;;14.25;59.18;94257.72;4980834;28;20232;-80
2021/05/01 00:14:35;;;;;;;10.90;9.73;;;14.70;72.50;;;14.23;58.59;94259.00;5012067;28;20205;-81
2021/05/01 00:17:02;;;;;;;10.73;9.52;;;14.70;72.20;;;14.25;58.03;94251.66;5010313;28;20698;-81
2021/05/01 00:19:30;;;;;;;10.20;8.73;;;14.70;72.10;;;14.23;57.56;94256.34;4982380;28;20247;-80
2021/05/01 00:21:56;;;;;;;9.52;7.95;;;14.70;72.10;;;14.26;57.08;94248.00;4997805;28;20346;-79
2021/05/01 00:24:23;;;;;;;9.52;8.45;;;14.60;71.90;;;14.30;57.38;94264.16;5011006;28;20204;-80
2021/05/01 00:26:50;;;;;;;9.60;8.45;;;14.60;72.00;;;14.29;57.69;94262.56;4994141;28;20216;-80
2021/05/01 00:29:17;;;;;;;11.20;9.15;;;14.70;72.10;;;14.30;57.27;94272.06;4994812;28;20216;-80
2021/05/01 00:31:43;;;;;;;10.40;9.27;;;14.60;72.00;;;14.32;57.68;94270.00;4992931;28;20746;-80
2021/05/01 00:34:10;;;;;;;11.65;10.43;;;14.70;72.10;;;14.31;58.33;94279.75;5033544;28;20667;-81
2021/05/01 00:36:37;;;;;;;16.98;14.13;;;14.70;72.20;;;14.27;59.92;94286.53;5017839;28;20211;-81
2021/05/01 00:39:05;;;;;;;21.77;17.23;;;14.70;72.70;;;14.16;59.83;94285.50;4982456;28;20713;-81
2021/05/01 00:41:32;;;;;;;26.50;22.30;;;14.60;72.80;;;13.99;60.15;94284.56;4984079;28;22027;-81
2021/05/01 00:43:59;;;;;;;27.85;21.77;;;14.60;72.90;;;13.81;60.10;94310.00;5003694;28;20319;-80
2021/05/01 00:46:26;;;;;;;26.80;21.35;;;14.50;72.60;;;13.64;59.44;94296.66;4986416;28;20208;-81
2021/05/01 00:48:52;;;;;;;28.85;24.63;;;14.40;72.20;;;13.43;60.27;94311.94;4995855;28;20315;-80
2021/05/01 00:51:19;;;;;;;31.05;25.42;;;14.20;72.20;;;13.23;59.66;94311.38;4973239;28;20265;-81
2021/05/01 00:53:47;;;;;;;27.83;22.67;;;14.10;71.90;;;13.04;58.81;94311.44;4963759;28;20218;-80
2021/05/01 00:56:14;;;;;;;28.00;23.40;;;13.90;71.50;;;12.89;59.54;94308.38;4986756;28;20208;-81
2021/05/01 00:58:42;;;;;;;28.88;22.30;;;13.80;71.60;;;12.73;59.08;94302.69;5015381;28;20318;-80
2021/05/01 01:01:17;;;;;;;24.70;21.02;;;13.60;71.60;;;12.63;59.81;94315.53;5000729;28;20208;-81
2021/05/01 01:03:46;;;;;;;28.77;23.35;;;13.50;71.50;;;12.50;59.61;94313.88;5032755;28;20222;-81
2021/05/01 01:06:14;;;;;;;26.05;21.13;;;13.30;71.80;;;12.38;59.26;94321.69;5047699;28;20278;-81
2021/05/01 01:08:43;;;;;;;29.30;22.80;;;13.20;71.70;;;12.29;59.13;94313.28;5035359;28;20257;-81
2021/05/01 01:11:11;;;;;;;30.30;24.10;;;13.10;71.70;;;12.19;59.48;94325.28;5027304;28;20287;-81
2021/05/01 01:14:00;;;;;;;28.20;24.33;;;13.00;71.80;;;12.07;58.83;94333.06;5012338;28;20273;-82
2021/05/01 01:16:29;;;;;;;31.05;24.23;;;12.90;71.90;;;11.97;59.26;94338.81;4990677;28;20220;-81
2021/05/01 01:18:57;;;;;;;31.13;24.55;;;12.70;71.80;;;11.87;60.52;94343.72;4974097;28;20228;-81
2021/05/01 01:21:26;;;;;;;29.60;24.73;;;12.60;72.30;;;11.77;60.73;94347.63;4983011;28;20208;-81
2021/05/01 01:23:54;;;;;;;34.15;26.45;;;12.50;72.30;;;11.69;61.08;94350.50;4981175;28;20235;-81
2021/05/01 01:26:22;;;;;;;28.33;24.48;;;12.50;72.70;;;11.63;60.94;94364.47;4994987;28;20717;-80
2021/05/01 01:28:49;;;;;;;34.33;26.17;;;12.40;72.60;;;11.56;61.05;94350.59;5016743;28;20612;-81
2021/05/01 01:31:16;;;;;;;32.70;25.80;;;12.30;72.90;;;11.50;60.98;94350.41;5005685;28;20620;-80
2021/05/01 01:33:43;;;;;;;34.17;27.40;;;12.30;73.10;;;11.45;61.15;94342.38;5000172;28;20291;-81
2021/05/01 01:36:10;;;;;;;28.30;25.02;;;12.10;73.10;;;11.42;60.46;94344.63;5017904;28;20277;-81
2021/05/01 01:38:37;;;;;;;28.83;25.27;;;12.10;73.00;;;11.37;60.80;94348.66;5033764;28;20239;-80
2021/05/01 01:41:04;;;;;;;31.95;27.25;;;12.00;73.10;;;11.29;61.73;94340.22;4999665;28;20208;-82
2021/05/01 01:43:31;;;;;;;33.15;26.98;;;12.00;73.50;;;11.23;62.24;94346.31;5020303;28;20228;-80
2021/05/01 01:46:00;;;;;;;33.15;27.63;;;11.90;73.80;;;11.15;62.58;94357.88;5015149;28;20721;-80
2021/05/01 01:48:27;;;;;;;34.53;26.65;;;11.80;73.90;;;11.09;62.41;94343.75;5033752;28;20234;-81
2021/05/01 01:50:54;;;;;;;30.67;25.42;;;11.70;73.80;;;11.09;61.34;94342.97;5042840;28;20252;-82
2021/05/01 01:53:23;;;;;;;32.50;27.42;;;11.70;73.70;;;11.03;61.81;94334.09;5035576;28;20279;-80
2021/05/01 01:55:51;;;;;;;35.40;27.80;;;11.70;74.00;;;10.98;62.31;94339.97;5022040;28;20290;-80
2021/05/01 01:58:22;;;;;;;31.05;26.58;;;11.60;74.00;;;10.96;62.10;94344.63;5049925;28;20223;-81
2021/05/01 02:00:51;;;;;;;32.58;27.25;;;11.60;74.20;;;10.92;62.03;94330.31;5030330;28;20644;-79
2021/05/01 02:03:18;;;;;;;32.90;26.90;;;11.60;74.20;;;10.89;61.74;94336.78;5018263;28;20248;-80
2021/05/01 02:05:45;;;;;;;32.90;26.90;;;11.50;74.20;;;10.86;61.48;94339.00;5048748;28;20673;-81
2021/05/01 02:08:13;;;;;;;33.90;28.77;;;11.50;74.00;;;10.82;62.05;94349.13;5033088;28;20338;-80
2021/05/01 02:10:41;;;;;;;33.70;27.63;;;11.50;74.30;;;10.77;62.24;94348.16;5010727;28;20213;-80
2021/05/01 02:13:09;;;;;;;32.92;27.58;;;11.40;74.30;;;10.73;62.81;94353.78;5014311;28;20292;-81
2021/05/01 02:15:36;;;;;;;33.75;27.70;;;11.40;74.40;;;10.70;62.33;94356.81;5011531;28;20216;-81
2021/05/01 02:18:03;;;;;;;36.20;30.50;;;11.30;74.50;;;10.66;62.46;94342.50;5016013;28;20324;-81
2021/05/01 02:20:36;;;;;;;33.63;27.63;;;11.30;74.60;;;10.62;62.09;94350.97;5012563;28;20220;-81
2021/05/01 02:23:05;;;;;;;37.50;28.92;;;11.20;74.50;;;10.60;62.28;94345.16;4973246;28;20771;-80
2021/05/01 02:25:33;;;;;;;35.20;27.88;;;11.20;74.60;;;10.56;62.37;94347.38;4988156;28;20201;-81
2021/05/01 02:28:00;;;;;;;36.72;29.05;;;11.10;74.30;;;10.51;62.67;94350.63;4975699;28;20236;-81
2021/05/01 02:30:28;;;;;;;35.38;28.15;;;11.20;74.50;;;10.50;61.90;94348.22;4976345;28;20207;-81
2021/05/01 02:32:57;;;;;;;37.58;30.15;;;11.10;74.50;;;10.47;62.54;94357.25;4955424;28;20258;-82
2021/05/01 02:35:28;;;;;;;35.60;28.63;;;11.00;74.70;;;10.45;62.18;94354.06;4992158;28;20220;-80
2021/05/01 02:37:56;;;;;;;32.70;26.95;;;11.00;74.70;;;10.43;62.14;94352.66;4994499;28;20228;-81
2021/05/01 02:40:24;;;;;;;32.28;26.25;;;11.10;74.60;;;10.43;61.92;94358.69;4996040;28;20232;-81
2021/05/01 02:42:51;;;;;;;34.03;27.95;;;10.90;74.30;;;10.41;61.89;94356.28;5011936;28;20224;-81
2021/05/01 02:45:19;;;;;;;36.92;29.42;;;11.00;74.60;;;10.37;62.79;94352.44;5004104;28;20248;-81
2021/05/01 02:47:48;;;;;;;32.17;27.45;;;10.90;75.20;;;10.35;62.23;94359.69;5012764;28;20233;-81
2021/05/01 02:50:16;;;;;;;36.03;29.13;;;10.90;74.70;;;10.34;62.52;94359.88;5005017;28;20219;-81
2021/05/01 02:52:42;;;;;;;35.10;28.50;;;10.90;75.20;;;10.33;62.39;94353.03;5030435;28;20223;-80
2021/05/01 02:55:10;;;;;;;36.90;29.05;;;10.90;75.20;;;10.31;63.17;94349.81;5011093;28;20667;-80
2021/05/01 02:57:38;;;;;;;37.92;30.65;;;10.90;75.20;;;10.27;63.26;94352.03;5016981;28;20241;-81
2021/05/01 03:00:09;;;;;;;38.38;30.45;;;10.90;75.20;;;10.23;63.50;94346.41;5006906;28;20595;-81
2021/05/01 03:02:35;;;;;;;35.90;29.35;;;10.80;75.10;;;10.25;63.13;94351.44;5034896;28;20799;-80
2021/05/01 03:05:03;;;;;;;36.33;29.25;;;10.80;75.10;;;10.26;63.07;94345.19;5011396;28;20590;-81
2021/05/01 03:07:33;;;;;;;42.20;31.20;;;10.80;75.90;;;10.26;63.01;94345.19;4996215;28;20263;-81
2021/05/01 03:10:03;;;;;;;34.83;27.52;;;10.80;75.10;;;10.28;62.09;94337.94;4994551;28;20240;-81
2021/05/01 03:12:29;;;;;;;33.88;27.73;;;10.80;75.10;;;10.32;61.89;94340.94;5012383;28;20232;-81
2021/05/01 03:14:56;;;;;;;34.40;25.92;;;10.80;75.10;;;10.32;61.85;94335.72;5002404;28;20208;-81
2021/05/01 03:17:22;;;;;;;34.55;27.63;;;10.80;75.10;;;10.36;61.67;94340.38;4993007;28;20233;-80
2021/05/01 03:19:49;;;;;;;29.33;23.45;;;10.90;75.10;;;10.40;60.99;94346.81;4993154;28;20667;-81
2021/05/01 03:22:16;;;;;;;31.13;25.73;;;10.80;74.80;;;10.43;61.17;94352.66;5010977;28;20228;-81
2021/05/01 03:24:43;;;;;;;30.17;24.15;;;10.80;75.00;;;10.43;60.78;94342.16;5016564;28;20214;-81
2021/05/01 03:27:09;;;;;;;30.50;24.98;;;10.90;74.70;;;10.48;61.00;94355.47;5034165;28;20227;-81
2021/05/01 03:29:38;;;;;;;30.58;25.63;;;10.90;74.70;;;10.51;60.59;94357.66;5040609;28;20242;-81
2021/05/01 03:32:05;;;;;;;30.27;24.23;;;10.90;74.60;;;10.53;60.51;94364.34;5056356;28;20773;-80
2021/05/01 03:34:32;;;;;;;31.75;25.50;;;10.90;74.40;;;10.54;60.05;94368.53;5015973;28;20740;-82
2021/05/01 03:36:59;;;;;;;34.35;26.83;;;10.90;74.40;;;10.54;60.95;94381.66;5011046;28;20232;-81
2021/05/01 03:39:26;;;;;;;30.85;25.15;;;11.00;74.50;;;10.57;60.16;94386.50;4979422;28;20740;-81
2021/05/01 03:41:58;;;;;;;31.90;25.02;;;11.00;74.40;;;10.60;60.47;94380.03;4984026;28;20230;-81
2021/05/01 03:44:27;;;;;;;29.85;24.42;;;11.10;74.40;;;10.62;60.22;94378.03;4963169;28;20274;-80
2021/05/01 03:46:55;;;;;;;34.05;27.83;;;11.00;74.30;;;10.61;60.74;94380.84;4988977;28;20253;-81
2021/05/01 03:49:23;;;;;;;31.20;24.77;;;11.10;74.60;;;10.62;60.24;94391.16;5016496;28;20231;-81
2021/05/01 03:51:50;;;;;;;32.15;26.35;;;11.00;74.30;;;10.63;60.88;94391.94;4985708;28;20210;-81
2021/05/01 03:54:18;;;;;;;33.97;24.95;;;11.00;74.30;;;10.64;59.95;94404.03;4972602;28;20203;-80
2021/05/01 03:56:45;;;;;;;30.63;25.65;;;11.00;74.20;;;10.63;60.21;94407.69;5010718;28;20204;-81
2021/05/01 03:59:12;;;;;;;31.15;24.98;;;11.10;75.00;;;10.63;59.86;94405.06;5026849;28;20299;-80
2021/05/01 04:01:39;;;;;;;31.10;25.08;;;11.10;74.20;;;10.64;59.84;94393.56;4994574;28;20275;-80
2021/05/01 04:04:09;;;;;;;36.42;27.35;;;11.10;74.20;;;10.65;60.55;94403.84;5029153;28;20229;-79
2021/05/01 04:06:36;;;;;;;36.20;27.20;;;11.10;74.20;;;10.65;60.39;94411.69;4992131;28;20313;-81
2021/05/01 04:09:05;;;;;;;36.00;28.27;;;11.10;74.20;;;10.65;60.46;94409.06;5029406;28;20341;-80
2021/05/01 04:11:32;;;;;;;33.17;25.85;;;11.20;74.30;;;10.64;60.14;94402.22;5035988;28;20220;-80
2021/05/01 04:13:59;;;;;;;34.97;27.52;;;11.10;74.00;;;10.61;60.30;94400.03;5019350;28;20224;-80
2021/05/01 04:16:26;;;;;;;32.55;24.88;;;11.10;74.10;;;10.66;59.58;94407.28;5019726;28;20205;-80
2021/05/01 04:18:53;;;;;;;35.42;27.50;;;11.10;74.00;;;10.67;59.98;94411.53;5025604;28;20230;-80
2021/05/01 04:21:20;;;;;;;35.30;28.17;;;11.10;74.10;;;10.65;60.53;94414.31;5033589;28;20641;-81
2021/05/01 04:23:48;;;;;;;38.75;29.73;;;11.20;74.30;;;10.65;60.41;94416.94;5017247;28;20227;-80
2021/05/01 04:26:15;;;;;;;32.97;26.75;;;11.10;74.30;;;10.67;60.07;94420.19;5019290;28;20748;-81
2021/05/01 04:28:42;;;;;;;37.13;28.45;;;11.10;74.20;;;10.68;60.08;94428.84;5035671;28;20277;-81
2021/05/01 04:31:09;;;;;;;34.90;28.58;;;11.10;74.20;;;10.69;60.14;94418.16;5020206;28;20224;-80
2021/05/01 04:33:36;;;;;;;34.53;26.50;;;11.10;74.20;;;10.69;59.94;94405.06;5002505;28;20223;-81
2021/05/01 04:36:03;;;;;;;35.53;28.10;;;11.10;74.10;;;10.70;60.47;94421.59;5041778;28;20196;-81
2021/05/01 04:38:30;;;;;;;37.20;28.42;;;11.10;74.20;;;10.71;60.23;94415.34;5014550;28;20223;-81
2021/05/01 04:40:57;;;;;;;32.88;25.55;;;11.10;74.20;;;10.72;60.01;94416.94;5019850;28;20204;-80
2021/05/01 04:43:25;;;;;;;33.25;25.85;;;11.20;74.30;;;10.75;59.57;94410.47;4993468;28;20307;-80
2021/05/01 04:45:55;;;;;;;29.98;23.77;;;11.10;74.20;;;10.79;59.68;94412.50;5002482;28;20216;-81
2021/05/01 04:48:22;;;;;;;29.38;22.58;;;11.10;74.20;;;10.83;59.30;94412.91;5018868;28;20266;-81
2021/05/01 04:50:51;;;;;;;31.77;24.75;;;11.10;74.20;;;10.90;59.51;94408.44;5014597;28;20269;-81
2021/05/01 04:53:18;;;;;;;33.63;25.33;;;11.20;74.30;;;10.91;59.64;94409.25;4994551;28;20610;-80
2021/05/01 04:55:45;;;;;;;32.75;25.27;;;11.20;74.20;;;10.95;59.55;94421.75;4998753;28;20272;-81
2021/05/01 04:58:14;;;;;;;35.83;28.35;;;11.30;74.30;;;10.95;59.85;94421.75;4998938;28;20224;-80
2021/05/01 05:00:41;;;;;;;34.17;26.48;;;11.30;74.30;;;10.97;59.67;94416.28;4964264;28;20684;-81
2021/05/01 05:03:09;;;;;;;35.65;27.60;;;11.30;74.20;;;10.93;60.05;94405.38;4973056;28;20226;-80
2021/05/01 05:05:37;;;;;;;37.53;28.77;;;11.30;74.20;;;10.98;60.03;94399.53;5026908;28;20223;-81
2021/05/01 05:08:05;;;;;;;37.55;28.20;;;11.30;74.30;;;11.01;59.77;94389.44;5016132;28;20230;-80
2021/05/01 05:10:33;;;;;;;36.22;28.33;;;11.40;74.30;;;11.05;59.84;94393.22;4993951;28;20236;-81
2021/05/01 05:12:59;;;;;;;39.08;29.75;;;11.40;74.40;;;11.05;59.88;94393.22;5028551;28;20220;-80
2021/05/01 05:15:26;;;;;;;37.78;29.15;;;11.40;74.30;;;11.10;59.81;94397.06;5016365;28;20258;-81
2021/05/01 05:17:54;;;;;;;35.60;27.55;;;11.40;74.30;;;11.10;60.10;94376.88;5025860;28;20270;-80
2021/05/01 05:20:23;;;;;;;41.75;30.90;;;11.40;74.30;;;11.14;60.13;94380.69;4972318;28;20205;-81
2021/05/01 05:22:50;;;;;;;40.97;31.08;;;11.50;74.50;;;11.16;60.12;94378.66;5011472;28;20252;-81
2021/05/01 05:25:17;;;;;;;37.05;28.98;;;11.50;74.50;;;11.21;60.17;94388.53;4972497;28;20213;-80
2021/05/01 05:27:44;;;;;;;38.42;29.45;;;11.50;74.50;;;11.26;60.09;94374.78;4954074;28;20217;-80
2021/05/01 05:30:11;;;;;;;40.45;31.55;;;11.50;74.60;;;11.30;59.97;94373.34;5016103;28;20203;-81
2021/05/01 05:32:38;;;;;;;37.53;30.15;;;11.50;74.70;;;11.34;59.90;94370.09;5052633;28;20700;-80
2021/05/01 05:35:06;;;;;;;40.90;30.52;;;11.60;74.70;;;11.40;60.42;94367.66;4996714;28;20574;-81
2021/05/01 05:37:32;;;;;;;37.00;28.30;;;11.60;74.80;;;11.45;59.96;94367.81;4997953;28;20236;-81
2021/05/01 05:39:59;;;;;;;34.40;26.92;;;11.70;74.80;;;11.54;59.71;94382.31;5023249;28;20211;-80
2021/05/01 05:42:26;;;;;;;32.30;25.33;;;11.70;74.90;;;11.64;59.89;94373.97;5034703;28;20219;-82
2021/05/01 05:44:53;;;;;;;36.42;28.15;;;11.80;74.90;;;11.71;59.59;94364.25;4996664;28;20206;-82
2021/05/01 05:47:20;;;;;;;36.17;28.02;;;11.80;74.80;;;11.78;59.48;94366.81;5001731;28;20244;-82
2021/05/01 05:49:48;;;;;;;35.95;27.30;;;11.90;74.90;;;11.84;59.32;94381.75;5004486;28;20215;-82
2021/05/01 05:52:15;;;;;;;37.78;29.27;;;11.90;74.80;;;11.88;59.76;94388.19;4999422;28;20315;-82
2021/05/01 05:54:42;;;;;;;32.42;26.95;;;12.10;74.90;;;11.91;59.41;94384.31;4994831;28;20214;-82
2021/05/01 05:57:11;;;;;;;34.53;27.10;;;12.10;74.70;;;11.94;59.22;94386.53;4980639;28;20221;-82
2021/05/01 05:59:42;;;;;;;34.63;26.65;;;12.10;74.50;;;11.99;59.12;94384.88;5005571;28;20666;-81
2021/05/01 06:02:14;;;;;;;36.65;27.52;;;12.20;74.50;;;12.06;59.18;94392.75;4979202;28;20649;-80
2021/05/01 06:05:12;;;;;;;43.10;32.95;;;12.20;74.60;;;12.04;58.40;94392.13;4995874;28;20566;-80
2021/05/01 06:07:55;;;;;;;36.97;29.20;;;12.30;74.30;;;12.09;59.00;94399.38;4997560;28;20232;-79
2021/05/01 06:10:23;;;;;;;34.72;27.88;;;12.40;74.40;;;12.15;59.11;94399.31;5026498;28;20235;-81
2021/05/01 06:12:51;;;;;;;36.15;29.45;;;12.30;74.30;;;12.25;58.97;94390.16;5014316;28;20229;-81
2021/05/01 06:15:19;;;;;;;37.22;29.88;;;12.40;74.60;;;12.35;59.17;94398.34;5034207;28;20259;-81
2021/05/01 06:17:48;;;;;;;37.85;30.10;;;12.40;74.60;;;12.48;58.72;94395.63;4964439;28;20229;-81
2021/05/01 06:20:16;;;;;;;36.25;28.10;;;12.60;74.70;;;12.58;58.59;94395.13;4989063;28;20212;-81
2021/05/01 06:22:42;;;;;;;34.33;26.95;;;12.60;74.70;;;12.71;58.69;94391.56;4981765;28;20308;-81
2021/05/01 06:25:12;;;;;;;36.42;28.70;;;12.70;74.70;;;12.84;58.40;94410.88;4986977;28;20598;-80
2021/05/01 06:27:39;;;;;;;37.08;29.13;;;12.80;74.70;;;12.94;58.18;94416.44;4995077;28;20438;-81
2021/05/01 06:30:12;;;;;;;40.28;30.85;;;12.90;74.70;;;13.01;58.14;94421.63;4991688;28;20220;-81
2021/05/01 06:32:45;;;;;;;36.67;29.48;;;13.00;74.60;;;13.07;58.37;94420.75;4996749;28;20239;-81
2021/05/01 06:35:13;;;;;;;40.15;31.13;;;13.20;74.50;;;13.08;57.84;94430.28;4994188;28;20662;-81
2021/05/01 06:37:40;;;;;;;39.33;32.20;;;13.20;74.20;;;13.06;57.78;94421.78;5035731;28;20242;-81
2021/05/01 06:40:12;;;;;;;37.55;30.30;;;13.20;74.00;;;13.05;57.78;94431.50;5020682;28;20424;-80
2021/05/01 06:43:03;;;;;;;38.22;30.50;;;13.20;73.80;;;13.03;57.82;94432.75;5038121;28;20288;-80
2021/05/01 06:45:35;;;;;;;37.50;29.77;;;13.30;73.70;;;13.03;57.81;94432.75;5042150;28;20212;-81
2021/05/01 06:48:06;;;;;;;38.13;29.70;;;13.30;73.60;;;13.03;57.60;94425.66;5040724;28;20229;-80
2021/05/01 06:50:34;;;;;;;40.17;30.20;;;13.30;73.50;;;13.03;57.76;94427.50;5056744;28;20217;-80
2021/05/01 06:53:02;;;;;;;38.85;29.80;;;13.40;73.50;;;13.00;57.84;94426.09;5040632;28;20227;-81
2021/05/01 06:55:33;;;;;;;40.40;30.67;;;13.30;73.40;;;13.01;57.80;94433.00;5040291;28;20242;-81
2021/05/01 06:58:03;;;;;;;40.40;32.63;;;13.30;73.40;;;13.00;57.73;94447.16;5057217;28;20226;-81
2021/05/01 07:00:31;;;;;;;41.20;29.80;;;13.30;73.20;;;12.98;57.65;94455.25;5037317;28;20680;-80
2021/05/01 07:03:08;;;;;;;36.15;28.92;;;13.30;73.30;;;13.02;57.78;94460.91;5042137;28;20227;-81
2021/05/01 07:05:36;;;;;;;33.05;26.95;;;13.30;73.40;;;13.07;57.65;94466.34;5039633;28;20203;-81
2021/05/01 07:08:05;;;;;;;39.17;30.65;;;13.30;73.40;;;13.06;57.39;94467.34;5035758;28;20909;-82
2021/05/01 07:10:35;;;;;;;35.10;28.65;;;13.30;73.20;;;13.10;57.73;94462.47;5021348;28;20207;-81
2021/05/01 07:13:03;;;;;;;34.20;26.85;;;13.30;73.30;;;13.19;57.63;94465.59;4997272;28;20223;-81
2021/05/01 07:15:31;;;;;;;29.70;25.38;;;13.40;73.60;;;13.37;57.69;94472.72;5017103;28;20262;-80
2021/05/01 07:17:57;;;;;;;35.88;27.08;;;13.40;73.80;;;13.50;57.23;94469.13;5025609;28;20221;-81
2021/05/01 07:20:25;;;;;;;33.42;27.23;;;13.50;73.60;;;13.61;57.19;94452.59;5051133;28;20252;-81
2021/05/01 07:22:53;;;;;;;32.15;25.17;;;13.60;73.80;;;13.79;57.15;94456.22;5039981;28;20235;-81
2021/05/01 07:25:26;;;;;;;35.03;28.63;;;13.70;73.80;;;13.89;56.66;94451.19;5040814;28;20206;-81
2021/05/01 07:27:55;;;;;;;33.33;26.45;;;13.90;74.30;;;13.95;56.06;94454.78;5034716;28;20707;-81
2021/05/01 07:30:28;;;;;;;34.78;28.20;;;13.90;73.00;;;13.94;55.94;94456.63;5039940;28;20695;-82
2021/05/01 07:33:23;;;;;;;30.15;25.83;;;14.00;72.70;;;13.93;56.07;94458.44;5028418;28;20689;-82
2021/05/01 07:35:54;;;;;;;34.30;26.65;;;14.10;72.70;;;13.96;56.14;94465.09;5008076;28;20216;-82
2021/05/01 07:38:23;;;;;;;33.45;28.27;;;14.10;72.60;;;13.92;56.03;94472.66;5025611;28;20281;-81
2021/05/01 07:40:54;;;;;;;35.90;29.27;;;14.10;72.50;;;13.90;56.04;94476.53;5035606;28;20787;-81
2021/05/01 07:43:23;;;;;;;38.28;30.77;;;14.10;72.30;;;13.88;55.97;94466.22;5015041;28;20583;-82
2021/05/01 07:45:54;;;;;;;33.70;27.95;;;14.10;72.30;;;13.87;55.88;94459.34;5019375;28;20695;-82
2021/05/01 07:48:22;;;;;;;37.45;30.63;;;14.10;73.00;;;13.83;55.42;94444.19;5022413;28;20643;-81
2021/05/01 07:50:49;;;;;;;35.25;29.67;;;14.10;71.90;;;13.80;55.84;94445.44;5014244;28;20230;-82
2021/05/01 07:53:16;;;;;;;32.50;27.02;;;14.10;72.00;;;13.84;56.21;94440.53;5032511;28;20219;-81
2021/05/01 07:55:43;;;;;;;31.92;26.08;;;14.10;72.10;;;13.88;55.97;94445.13;5028736;28;20217;-82
2021/05/01 07:58:10;;;;;;;33.45;27.65;;;14.10;72.20;;;14.00;55.83;94447.81;4974981;28;20228;-81
2021/05/01 08:00:37;;;;;;;36.17;29.83;;;14.10;72.40;;;14.05;55.90;94441.88;5006974;28;20308;-82
2021/05/01 08:03:05;;;;;;;37.50;31.05;;;14.20;72.20;;;14.08;55.52;94444.06;4991693;28;21167;-80
2021/05/01 08:05:32;;;;;;;37.38;30.08;;;14.20;72.10;;;14.14;55.48;94452.91;4976814;28;20287;-82
2021/05/01 08:07:59;;;;;;;36.47;29.00;;;14.30;72.10;;;14.19;55.07;94443.28;4995745;28;20272;-81
2021/05/01 08:10:26;;;;;;;35.25;28.98;;;14.30;72.20;;;14.27;55.50;94449.25;4992710;28;20279;-81
2021/05/01 08:12:54;;;;;;;33.47;27.70;;;14.30;72.10;;;14.35;55.58;94441.81;4995926;28;20638;-81
2021/05/01 08:15:21;;;;;;;33.00;27.33;;;14.40;72.30;;;14.49;55.43;94437.16;5019708;28;20221;-81
2021/05/01 08:17:47;;;;;;;32.13;26.83;;;14.40;72.30;;;14.62;55.54;94432.69;5009872;28;20307;-81
2021/05/01 08:20:15;;;;;;;32.40;27.38;;;14.50;72.30;;;14.74;55.01;94441.44;5016897;28;20246;-81
2021/05/01 08:22:42;;;;;;;31.20;26.45;;;14.60;72.20;;;14.79;55.00;94427.53;5011523;28;20231;-80
2021/05/01 08:25:11;;;;;;;31.17;26.83;;;14.70;72.00;;;14.85;54.74;94430.06;4993271;28;20218;-82
2021/05/01 08:27:39;;;;;;;32.03;26.45;;;14.70;71.70;;;14.89;54.69;94425.13;4971400;28;20718;-83
2021/05/01 08:30:15;;;;;;;35.03;28.75;;;14.80;71.70;;;14.95;54.56;94431.31;5001659;28;20608;-83
2021/05/01 08:32:46;;;;;;;34.80;29.63;;;14.90;71.70;;;15.03;54.65;94426.50;5014255;28;20270;-81
2021/05/01 08:35:17;;;;;;;34.58;28.13;;;15.00;71.80;;;15.15;54.29;94428.34;5000660;28;20311;-83
2021/05/01 08:37:46;;;;;;;33.75;27.40;;;15.00;71.50;;;15.28;54.38;94430.72;5022147;28;20637;-80
2021/05/01 08:40:13;;;;;;;34.78;28.92;;;15.10;71.70;;;15.37;53.74;94445.16;4998974;28;20219;-80
2021/05/01 08:42:44;;;;;;;37.15;31.60;;;15.20;71.50;;;15.36;53.25;94458.63;5021532;28;20243;-81
2021/05/01 08:45:13;;;;;;;37.42;30.40;;;15.30;70.90;;;15.35;53.57;94465.72;5002130;28;20201;-81
2021/05/01 08:47:43;;;;;;;34.65;29.13;;;15.40;70.90;;;15.34;53.56;94453.56;4988171;28;20225;-80
2021/05/01 08:50:36;;;;;;;36.65;30.13;;;15.40;70.80;;;15.33;53.29;94465.16;4999354;28;20212;-82
2021/05/01 08:53:03;;;;;;;36.72;30.58;;;15.40;70.60;;;15.38;53.15;94461.84;4988672;28;20229;-80
2021/05/01 08:55:35;;;;;;;37.00;30.17;;;15.50;70.60;;;15.43;53.12;94455.81;4971991;28;20288;-82
2021/05/01 08:58:03;;;;;;;32.42;28.60;;;15.60;70.70;;;15.55;53.22;94464.56;4999299;28;20251;-81
2021/05/01 09:00:31;;;;;;;33.17;27.83;;;15.50;70.50;;;15.69;53.18;94459.78;5009878;28;20221;-81
2021/05/01 09:03:07;;;;;;;36.78;29.08;;;15.60;70.60;;;15.81;52.97;94459.75;5015431;28;20232;-81
2021/05/01 09:05:36;;;;;;;36.03;30.17;;;15.60;70.80;;;15.90;52.56;94474.22;5017541;28;20219;-82
2021/05/01 09:08:06;;;;;;;33.42;28.52;;;15.70;70.50;;;15.92;52.73;94458.94;5030685;28;20282;-81
2021/05/01 09:10:45;;;;;;;36.63;30.30;;;15.80;70.60;;;15.96;52.33;94452.13;5016106;28;20214;-82
2021/05/01 09:13:17;;;;;;;31.13;26.80;;;15.90;70.30;;;16.02;52.66;94465.47;5005333;28;20240;-81
2021/05/01 09:16:07;;;;;;;30.63;25.70;;;15.90;70.30;;;16.13;52.39;94473.31;5131456;27;20303;-81
2021/05/01 09:19:03;;;;;;;27.63;23.67;;;16.00;70.20;;;16.30;53.11;94449.53;5065999;28;20225;-81
2021/05/01 09:21:31;;;;;;;28.88;23.42;;;16.10;70.40;;;16.56;52.85;94446.53;5037280;28;20250;-81
2021/05/01 09:23:59;;;;;;;32.30;26.20;;;16.20;70.90;;;16.78;52.14;94441.28;5052806;28;20222;-80
2021/05/01 09:26:42;;;;;;;28.52;24.02;;;16.40;70.50;;;16.99;52.34;94431.84;5070579;28;20201;-82
2021/05/01 09:29:27;;;;;;;26.02;23.00;;;16.60;70.30;;;17.27;52.53;94420.28;5073861;28;20213;-82
2021/05/01 09:31:54;;;;;;;27.08;23.83;;;16.70;70.50;;;17.57;52.07;94415.59;5074424;28;20226;-81
2021/05/01 09:34:38;;;;;;;26.27;23.40;;;16.90;71.20;;;17.90;52.15;94405.88;5053143;28;20234;-81
2021/05/01 09:37:07;;;;;;;27.15;22.38;;;17.10;70.50;;;18.12;51.73;94405.06;5030587;28;20644;-81
2021/05/01 09:39:34;;;;;;;25.42;22.25;;;17.30;70.50;;;18.37;51.22;94399.97;5053136;28;20205;-81
2021/05/01 09:42:15;;;;;;;27.42;22.45;;;17.60;70.80;;;18.64;51.31;94398.28;5052949;28;20221;-82
2021/05/01 09:44:43;;;;;;;30.88;26.38;;;17.80;71.10;;;18.84;50.48;94387.78;5045439;28;20205;-82
2021/05/01 09:47:17;;;;;;;27.65;24.33;;;18.00;70.20;;;18.99;50.20;94383.66;5031998;28;20231;-81
2021/05/01 09:49:49;;;;;;;28.15;25.08;;;18.20;69.60;;;19.08;50.33;94371.50;5055214;28;20206;-82
2021/05/01 09:52:16;;;;;;;27.20;24.20;;;18.40;69.60;;;19.14;50.25;94366.97;5085238;28;20587;-82
2021/05/01 09:54:47;;;;;;;29.60;25.55;;;18.50;69.20;;;19.04;49.02;94355.25;5069817;28;20301;-81
2021/05/01 09:57:21;;;;;;;32.13;27.20;;;18.60;67.80;;;18.93;48.67;94356.28;5080067;28;20533;-81
2021/05/01 09:59:54;;;;;;;27.50;24.52;;;18.70;67.50;;;18.79;48.50;94352.44;5052079;28;20206;-82
2021/05/01 10:02:33;;;;;;;31.23;23.92;;;18.70;67.50;;;18.70;49.13;94352.09;5043879;28;20218;-81
2021/05/01 10:05:15;;;;;;;26.08;22.77;;;18.60;67.80;;;18.73;49.68;94357.69;5064633;28;20194;-81
2021/05/01 10:07:51;;;;;;;29.00;23.35;;;18.70;68.30;;;18.79;49.37;94357.75;5048087;28;20712;-81
2021/05/01 12:41:17;;;;;;;24.38;21.40;;;19.70;72.10;;;20.43;53.24;94240.25;5149982;27;20566;-79
2021/05/01 12:43:49;;;;;;;27.20;22.92;;;20.10;71.60;;;21.41;51.42;94242.50;5052061;28;20377;-80
2021/05/01 12:46:36;;;;;;;28.20;24.75;;;20.60;71.60;;;22.37;49.39;94233.22;5037177;28;20684;-80